Clearview, Texas
Current Conditions -  °F | °C
As of 12:35 AM on Thursday 29 Jan 2015 (Local Time) from KGYB Reporting Station
Clear Clear  
Wind Chill: 58°   Ceiling: Unl
Heat Index: 58°   Visibility: 7mi
Dew Point: 57°   Wind: 8mph
Humidity: 97%   Direction: 190°S
Pressure: 30.18"   Gusts: NA
Location:  30.1644°N, 97.2747°W
Report Text: KGYB 290635Z AUTO 19007KT 7SM CLR 15/14 A3018 RMK AO2 T01450140
Loading
Personal Weather Stations






























Interactive Weather Map New forecast layout! Learn more

10-Day Weather Forecast

Advertisements
Track Severe Weather on mobile